Time;durP1;ratioP1;P1;durP2;ratioP2;P2;SDS_P1;SDS_P2;PMS_P1;PMS_P2;Temp;Humidity;BMP_temperature;BMP_pressure;BME280_temperature;BME280_humidity;BME280_pressure;Samples;Min_cycle;Max_cycle;Signal;HPM_P1;HPM_P2
2023/03/19 00:00:06;;;;;;;11.00;7.40;;;5.60;90.60;;;;;;5099417;28;20331;-82
2023/03/19 00:02:32;;;;;;;14.77;7.83;;;5.50;90.60;;;;;;5104271;28;20550;-83
2023/03/19 00:04:58;;;;;;;11.93;7.83;;;5.40;90.80;;;;;;5094207;28;20166;-77
2023/03/19 00:07:24;;;;;;;8.97;7.07;;;5.50;90.70;;;;;;5094020;28;20171;-74
2023/03/19 00:09:49;;;;;;;10.60;7.77;;;5.40;90.80;;;;;;5094063;28;20282;-84
2023/03/19 00:12:15;;;;;;;11.27;7.63;;;5.30;90.90;;;;;;5093896;28;20311;-83
2023/03/19 00:14:41;;;;;;;9.20;7.57;;;5.20;91.00;;;;;;5094316;28;20526;-84
2023/03/19 00:17:07;;;;;;;10.23;7.47;;;5.20;91.10;;;;;;5093590;28;20622;-84
2023/03/19 00:19:33;;;;;;;9.93;7.90;;;5.20;91.20;;;;;;5093692;28;20183;-76
2023/03/19 00:21:59;;;;;;;12.00;8.03;;;5.10;91.30;;;;;;5075404;28;20187;-82
2023/03/19 00:24:25;;;;;;;11.63;8.10;;;5.00;91.40;;;;;;5093886;28;20196;-83
2023/03/19 00:26:51;;;;;;;12.90;8.50;;;5.00;91.80;;;;;;5075797;28;20235;-82
2023/03/19 00:29:17;;;;;;;12.43;8.27;;;5.00;91.50;;;;;;5094129;28;20649;-84
2023/03/19 00:31:43;;;;;;;13.37;8.23;;;5.10;91.50;;;;;;5093979;28;20172;-84
2023/03/19 00:34:09;;;;;;;10.77;8.03;;;5.10;91.50;;;;;;5093972;28;20210;-80
2023/03/19 00:36:36;;;;;;;10.43;8.03;;;5.10;91.50;;;;;;5097569;28;20229;-77
2023/03/19 00:39:02;;;;;;;8.93;7.47;;;5.10;91.50;;;;;;5107657;28;20172;-80
2023/03/19 00:41:28;;;;;;;13.23;8.37;;;5.00;91.50;;;;;;5099069;28;20203;-81
2023/03/19 00:43:55;;;;;;;11.50;8.10;;;5.10;91.50;;;;;;5093633;28;20680;-82
2023/03/19 00:46:22;;;;;;;11.27;8.30;;;5.10;91.50;;;;;;5093232;28;20176;-81
2023/03/19 00:48:49;;;;;;;10.63;8.17;;;5.20;91.40;;;;;;5093242;28;20178;-78
2023/03/19 00:51:15;;;;;;;13.97;7.77;;;5.10;91.50;;;;;;5093488;28;20171;-83
2023/03/19 00:53:43;;;;;;;11.00;7.80;;;4.90;91.70;;;;;;5093116;28;20214;-84
2023/03/19 00:56:11;;;;;;;9.27;7.83;;;4.90;91.70;;;;;;5093250;28;20189;-83
2023/03/19 00:58:37;;;;;;;11.43;8.43;;;5.00;91.60;;;;;;5092762;28;20194;-80
2023/03/19 01:01:04;;;;;;;10.70;7.70;;;5.00;91.60;;;;;;5093075;28;20220;-81
2023/03/19 01:03:30;;;;;;;12.33;8.10;;;5.00;91.70;;;;;;5092978;28;20184;-76
2023/03/19 01:05:57;;;;;;;11.50;7.67;;;5.00;91.70;;;;;;5093972;28;20169;-73
2023/03/19 01:08:23;;;;;;;10.90;7.67;;;4.90;91.80;;;;;;5092522;28;20668;-83
2023/03/19 01:10:49;;;;;;;10.13;7.83;;;4.90;91.80;;;;;;5092755;28;20179;-83
2023/03/19 01:13:15;;;;;;;13.07;7.80;;;4.90;91.90;;;;;;5092734;28;20615;-78
2023/03/19 01:15:42;;;;;;;12.03;8.20;;;4.90;91.90;;;;;;5092676;28;20180;-79
2023/03/19 01:18:09;;;;;;;11.10;7.77;;;5.00;91.80;;;;;;5092688;28;20260;-78
2023/03/19 01:20:37;;;;;;;10.47;7.97;;;5.00;91.80;;;;;;5093249;28;20255;-84
2023/03/19 01:23:04;;;;;;;10.17;7.63;;;5.00;91.70;;;;;;5093050;28;20174;-75
2023/03/19 01:25:30;;;;;;;12.37;7.37;;;5.10;91.80;;;;;;5094059;28;20166;-79
2023/03/19 01:27:56;;;;;;;13.17;8.33;;;5.10;91.80;;;;;;5092844;28;20228;-75
2023/03/19 01:30:22;;;;;;;11.47;7.77;;;5.10;91.60;;;;;;5074497;28;20167;-76
2023/03/19 01:32:48;;;;;;;12.03;7.67;;;5.20;91.60;;;;;;5092566;28;20323;-74
2023/03/19 01:35:14;;;;;;;10.13;7.57;;;5.10;91.50;;;;;;5074898;28;20513;-73
2023/03/19 01:37:40;;;;;;;10.10;7.43;;;5.00;91.40;;;;;;5093848;28;20173;-81
2023/03/19 01:40:09;;;;;;;11.63;8.10;;;5.00;91.80;;;;;;5099555;28;20166;-80
2023/03/19 01:42:54;;;;;;;14.03;8.80;;;4.90;91.80;;;;;;5096892;28;20181;-80
2023/03/19 01:45:34;;;;;;;11.53;8.17;;;4.90;91.80;;;;;;5098063;28;20232;-82
2023/03/19 01:48:00;;;;;;;9.90;7.13;;;4.80;91.80;;;;;;5095395;28;20512;-81
2023/03/19 01:50:34;;;;;;;9.73;7.33;;;4.80;91.90;;;;;;5093289;28;20170;-82
2023/03/19 01:53:01;;;;;;;11.87;7.10;;;4.70;92.00;;;;;;5096682;28;20215;-81
2023/03/19 01:55:27;;;;;;;9.03;7.10;;;4.70;92.20;;;;;;5096401;28;20171;-83
2023/03/19 01:57:52;;;;;;;12.57;7.60;;;4.60;92.10;;;;;;5096030;28;20218;-82
2023/03/19 02:00:18;;;;;;;9.70;7.23;;;4.60;92.10;;;;;;5096428;28;20284;-81
2023/03/19 02:02:49;;;;;;;10.13;6.87;;;4.60;92.30;;;;;;5096482;28;20179;-83
2023/03/19 02:05:24;;;;;;;8.70;7.07;;;4.70;92.20;;;;;;5096316;28;20160;-82
2023/03/19 02:07:51;;;;;;;12.13;8.00;;;4.80;92.20;;;;;;5096094;28;20155;-82
2023/03/19 02:10:20;;;;;;;12.73;7.60;;;4.70;92.10;;;;;;5096785;28;20177;-82
2023/03/19 02:12:46;;;;;;;10.30;7.63;;;4.60;92.30;;;;;;5103868;28;20600;-83
2023/03/19 02:15:12;;;;;;;9.40;7.10;;;4.60;92.30;;;;;;5091517;28;20208;-81
2023/03/19 02:17:39;;;;;;;8.87;6.83;;;4.50;92.40;;;;;;5078409;28;20179;-83
2023/03/19 02:20:17;;;;;;;9.07;7.43;;;4.60;92.40;;;;;;5096299;28;20208;-84
2023/03/19 02:23:00;;;;;;;11.93;7.33;;;4.60;92.50;;;;;;5096334;28;20227;-79
2023/03/19 02:25:45;;;;;;;11.87;7.73;;;4.60;92.40;;;;;;5095847;28;20158;-80
2023/03/19 02:28:14;;;;;;;9.83;7.03;;;4.70;92.50;;;;;;5095538;28;20622;-84
2023/03/19 02:30:42;;;;;;;9.20;7.20;;;4.70;92.50;;;;;;5096183;28;20178;-83
2023/03/19 02:33:19;;;;;;;9.40;6.93;;;4.60;92.50;;;;;;5095622;28;20199;-83
2023/03/19 02:35:50;;;;;;;7.73;6.77;;;4.60;92.50;;;;;;5095876;28;20163;-80
2023/03/19 02:38:17;;;;;;;10.80;7.50;;;4.60;92.50;;;;;;5095513;28;20171;-80
2023/03/19 02:40:58;;;;;;;9.27;7.27;;;4.60;92.40;;;;;;5077703;28;20187;-84
2023/03/19 02:43:24;;;;;;;11.90;7.10;;;4.60;92.30;;;;;;5095480;28;20166;-77
2023/03/19 02:45:50;;;;;;;10.17;7.57;;;4.60;92.40;;;;;;5108352;28;20798;-83
2023/03/19 02:48:16;;;;;;;9.93;6.50;;;4.60;92.40;;;;;;5115389;28;20169;-84
2023/03/19 02:50:42;;;;;;;10.30;7.40;;;4.70;92.30;;;;;;5114357;28;20253;-83
2023/03/19 02:53:08;;;;;;;8.83;6.97;;;4.70;92.20;;;;;;5114691;28;20213;-82
2023/03/19 02:55:34;;;;;;;8.63;6.90;;;4.60;92.40;;;;;;5114792;28;20674;-83
2023/03/19 02:58:00;;;;;;;8.13;6.47;;;4.60;92.30;;;;;;5114344;28;20257;-80
2023/03/19 03:00:26;;;;;;;10.37;7.47;;;4.60;92.50;;;;;;5114540;28;20244;-78
2023/03/19 03:02:54;;;;;;;9.17;7.10;;;4.60;92.50;;;;;;5114151;28;20173;-83
2023/03/19 03:05:21;;;;;;;10.97;7.40;;;4.60;92.50;;;;;;5115011;28;20524;-82
2023/03/19 03:07:46;;;;;;;10.10;6.97;;;4.40;92.60;;;;;;5112992;28;20184;-82
2023/03/19 03:10:12;;;;;;;8.60;6.83;;;4.40;92.80;;;;;;5113040;28;20227;-84
2023/03/19 03:12:38;;;;;;;9.30;7.23;;;4.30;93.00;;;;;;5114663;28;20237;-82
2023/03/19 03:15:07;;;;;;;8.77;7.30;;;4.20;93.10;;;;;;5117256;28;20253;-79
2023/03/19 03:17:35;;;;;;;11.73;7.63;;;4.20;93.00;;;;;;5117407;28;20184;-78
2023/03/19 03:20:02;;;;;;;13.23;7.53;;;4.30;93.00;;;;;;5115817;28;20188;-80
2023/03/19 03:22:27;;;;;;;11.90;7.40;;;4.20;93.10;;;;;;5112851;28;20186;-82
2023/03/19 03:24:53;;;;;;;12.30;8.07;;;4.30;93.10;;;;;;5114389;28;20173;-78
2023/03/19 03:27:19;;;;;;;12.70;7.57;;;4.20;93.10;;;;;;5113961;28;20235;-76
2023/03/19 03:29:44;;;;;;;12.00;7.83;;;4.20;93.00;;;;;;5114350;28;20164;-76
2023/03/19 03:32:10;;;;;;;8.27;6.73;;;4.20;93.00;;;;;;5113765;28;20173;-75
2023/03/19 03:34:36;;;;;;;8.87;6.90;;;4.10;93.10;;;;;;5112169;28;20175;-77
2023/03/19 03:37:02;;;;;;;11.87;7.60;;;4.10;93.30;;;;;;5113725;28;20578;-74
2023/03/19 03:39:28;;;;;;;10.10;7.47;;;4.10;93.40;;;;;;5112998;28;20174;-77
2023/03/19 03:41:53;;;;;;;10.60;7.70;;;4.00;93.40;;;;;;5113535;28;20177;-78
2023/03/19 03:44:19;;;;;;;9.60;7.03;;;4.10;93.40;;;;;;5059744;28;1389748;-76
2023/03/19 03:46:45;;;;;;;9.73;7.67;;;4.10;93.50;;;;;;5094674;28;20259;-76
2023/03/19 03:49:11;;;;;;;12.77;8.00;;;4.00;93.40;;;;;;5101155;28;20183;-74
2023/03/19 03:51:37;;;;;;;9.70;7.27;;;4.00;93.50;;;;;;5110935;28;20183;-84
2023/03/19 03:54:02;;;;;;;10.47;7.33;;;4.00;93.50;;;;;;5095791;28;20304;-82
2023/03/19 03:56:28;;;;;;;10.83;7.50;;;3.90;93.70;;;;;;5077977;28;20183;-79
2023/03/19 03:58:54;;;;;;;9.30;6.77;;;4.00;93.70;;;;;;5079273;28;20171;-75
2023/03/19 04:01:20;;;;;;;9.53;7.03;;;3.90;93.60;;;;;;5094687;28;20172;-84
2023/03/19 04:03:46;;;;;;;10.07;7.00;;;3.90;93.70;;;;;;5076550;28;20507;-83
2023/03/19 04:06:15;;;;;;;10.63;7.67;;;3.90;93.60;;;;;;5094242;28;20224;-83
2023/03/19 04:08:41;;;;;;;8.60;7.60;;;4.00;93.60;;;;;;5094681;28;20186;-83
2023/03/19 04:11:08;;;;;;;10.60;7.57;;;3.90;93.80;;;;;;5094527;28;20172;-84
2023/03/19 04:13:35;;;;;;;11.17;7.83;;;3.90;93.80;;;;;;5093779;28;20200;-82
2023/03/19 04:16:03;;;;;;;10.97;7.07;;;4.00;93.90;;;;;;5093899;28;20167;-83
2023/03/19 04:18:30;;;;;;;12.90;7.67;;;3.90;93.80;;;;;;5093812;28;20180;-82
2023/03/19 04:20:56;;;;;;;10.47;7.40;;;3.90;93.90;;;;;;5094444;28;20174;-84
2023/03/19 04:23:23;;;;;;;10.63;7.57;;;3.90;93.80;;;;;;5093634;28;20196;-84
2023/03/19 04:25:49;;;;;;;10.97;7.70;;;4.00;93.60;;;;;;5093495;28;20175;-76
2023/03/19 04:28:15;;;;;;;9.77;6.53;;;4.10;93.60;;;;;;5093475;28;20194;-73
2023/03/19 04:30:42;;;;;;;10.80;7.00;;;4.10;93.70;;;;;;5093309;28;20237;-82
2023/03/19 04:33:09;;;;;;;10.53;7.40;;;4.00;93.50;;;;;;5093552;28;20210;-83
2023/03/19 04:35:35;;;;;;;8.50;6.80;;;4.10;93.60;;;;;;5093617;28;20164;-84
2023/03/19 04:38:01;;;;;;;12.77;7.77;;;4.20;93.50;;;;;;5093325;28;20189;-83
2023/03/19 04:40:27;;;;;;;13.33;7.37;;;4.20;93.50;;;;;;5093463;28;20205;-83
2023/03/19 04:42:53;;;;;;;10.33;7.00;;;4.20;93.50;;;;;;5093378;28;20204;-82
2023/03/19 04:45:19;;;;;;;10.90;7.40;;;4.10;93.50;;;;;;5093039;28;20775;-80
2023/03/19 04:47:45;;;;;;;9.17;7.13;;;4.00;93.70;;;;;;5092810;28;20181;-74
2023/03/19 04:50:12;;;;;;;7.90;6.67;;;4.10;93.70;;;;;;5093288;28;20256;-77
2023/03/19 04:52:38;;;;;;;10.00;7.23;;;4.10;93.50;;;;;;5093148;28;20220;-81
2023/03/19 04:55:06;;;;;;;10.37;7.33;;;4.20;93.50;;;;;;5102199;28;20182;-81
2023/03/19 04:57:32;;;;;;;8.07;7.23;;;4.20;93.30;;;;;;5105037;28;20183;-74
2023/03/19 04:59:58;;;;;;;11.20;7.93;;;4.10;93.40;;;;;;5093047;28;20250;-83
2023/03/19 05:02:25;;;;;;;9.37;7.17;;;4.10;93.40;;;;;;5092890;28;20309;-82
2023/03/19 05:04:50;;;;;;;9.83;7.60;;;4.10;93.40;;;;;;5092719;28;20170;-74
2023/03/19 05:07:16;;;;;;;9.43;6.67;;;4.10;93.50;;;;;;5092095;28;20179;-76
2023/03/19 05:09:42;;;;;;;9.90;6.63;;;4.10;93.40;;;;;;5092751;28;20249;-73
2023/03/19 05:12:10;;;;;;;11.07;7.27;;;4.00;93.50;;;;;;5092232;28;20241;-77
2023/03/19 05:14:36;;;;;;;12.63;7.60;;;4.10;93.60;;;;;;5092691;28;20517;-79
2023/03/19 05:17:02;;;;;;;9.40;6.73;;;4.10;93.50;;;;;;5092462;28;20181;-75
2023/03/19 05:19:28;;;;;;;8.40;7.10;;;4.10;93.90;;;;;;5073850;28;20185;-76
2023/03/19 05:21:56;;;;;;;10.57;7.00;;;4.00;93.70;;;;;;5092256;28;20208;-74
2023/03/19 05:24:22;;;;;;;11.23;7.20;;;3.90;93.90;;;;;;5094042;28;20578;-72
2023/03/19 05:26:48;;;;;;;13.37;8.07;;;4.00;93.70;;;;;;5108697;28;20178;-81
2023/03/19 05:29:14;;;;;;;9.27;7.00;;;4.10;93.70;;;;;;5093964;28;20506;-77
2023/03/19 05:31:40;;;;;;;10.63;7.03;;;4.10;93.70;;;;;;5092689;28;20641;-83
2023/03/19 05:34:06;;;;;;;11.17;7.40;;;4.20;93.60;;;;;;5092989;28;20206;-83
2023/03/19 05:36:33;;;;;;;9.23;6.93;;;4.10;93.70;;;;;;5092732;28;20194;-82
2023/03/19 05:38:59;;;;;;;11.20;7.73;;;4.10;93.80;;;;;;5093237;28;20187;-81
2023/03/19 05:41:25;;;;;;;10.30;7.33;;;4.10;93.70;;;;;;5098793;28;20181;-75
2023/03/19 05:43:51;;;;;;;9.00;7.27;;;4.10;93.60;;;;;;5074702;28;20179;-77
2023/03/19 05:46:17;;;;;;;10.43;7.43;;;4.10;93.80;;;;;;5092547;28;20178;-75
2023/03/19 05:48:43;;;;;;;12.20;7.03;;;4.10;93.80;;;;;;5092248;28;20177;-75
2023/03/19 05:51:10;;;;;;;10.40;7.33;;;4.20;93.70;;;;;;5092769;28;20629;-75
2023/03/19 05:53:36;;;;;;;9.80;7.47;;;4.20;93.80;;;;;;5096254;28;20311;-75
2023/03/19 05:56:02;;;;;;;10.17;7.03;;;4.30;93.70;;;;;;5103643;28;20171;-73
2023/03/19 05:58:28;;;;;;;11.20;7.63;;;4.40;93.70;;;;;;5092622;28;20178;-75
2023/03/19 06:00:55;;;;;;;10.73;7.37;;;4.40;93.60;;;;;;5092488;28;20223;-80
2023/03/19 06:03:21;;;;;;;12.57;7.47;;;4.50;93.60;;;;;;5091189;28;20226;-82
2023/03/19 06:05:51;;;;;;;8.43;7.47;;;4.70;93.60;;;;;;5072523;28;20230;-80
2023/03/19 06:08:18;;;;;;;11.77;7.47;;;4.70;93.50;;;;;;5072008;28;20190;-81
2023/03/19 06:10:44;;;;;;;9.67;7.63;;;4.70;93.30;;;;;;5071831;28;20301;-81
2023/03/19 06:13:10;;;;;;;9.93;7.33;;;4.80;93.30;;;;;;5071860;28;20285;-80
2023/03/19 06:15:36;;;;;;;9.53;7.30;;;4.80;93.20;;;;;;5071775;28;20199;-82
2023/03/19 06:18:02;;;;;;;12.63;7.13;;;4.80;93.20;;;;;;5071474;28;20795;-75
2023/03/19 06:20:28;;;;;;;9.37;6.83;;;4.80;93.30;;;;;;5053550;28;20180;-83
2023/03/19 06:22:53;;;;;;;12.83;7.67;;;4.90;93.30;;;;;;5071532;28;20226;-76
2023/03/19 06:25:19;;;;;;;11.13;7.90;;;4.90;93.10;;;;;;5071811;28;20631;-74
2023/03/19 06:27:45;;;;;;;10.07;7.20;;;4.90;93.20;;;;;;5071637;28;20173;-75
2023/03/19 06:30:11;;;;;;;11.13;7.70;;;4.90;93.30;;;;;;5053868;28;20220;-83
2023/03/19 06:32:37;;;;;;;8.73;7.07;;;5.10;93.20;;;;;;5072739;28;20204;-76
2023/03/19 06:35:04;;;;;;;9.07;7.50;;;5.10;93.10;;;;;;5088648;28;20254;-80
2023/03/19 06:37:29;;;;;;;10.87;7.53;;;5.10;93.10;;;;;;5096191;28;20185;-86
2023/03/19 06:39:55;;;;;;;11.13;7.87;;;5.20;93.10;;;;;;5097644;28;20174;-87
2023/03/19 06:42:21;;;;;;;10.67;7.37;;;5.30;92.90;;;;;;5097204;28;20167;-85
2023/03/19 06:44:47;;;;;;;10.77;7.77;;;5.30;93.00;;;;;;5095326;28;20235;-81
2023/03/19 06:47:14;;;;;;;10.23;7.63;;;5.40;93.00;;;;;;5095315;28;20690;-81
2023/03/19 06:49:40;;;;;;;12.00;7.00;;;5.60;92.90;;;;;;5095710;28;20510;-83
2023/03/19 06:52:06;;;;;;;10.53;7.77;;;5.70;92.70;;;;;;5095609;28;20689;-81
2023/03/19 06:54:32;;;;;;;10.53;8.07;;;5.80;92.60;;;;;;5095523;28;20196;-80
2023/03/19 06:56:58;;;;;;;11.40;7.97;;;5.90;92.70;;;;;;5095589;28;20377;-80
2023/03/19 06:59:24;;;;;;;11.03;8.37;;;5.90;92.70;;;;;;5100663;28;20177;-80
2023/03/19 07:01:51;;;;;;;11.50;8.63;;;5.90;92.80;;;;;;5116142;28;20188;-77
2023/03/19 07:04:17;;;;;;;11.20;7.93;;;6.00;92.70;;;;;;5100879;28;20215;-80
2023/03/19 07:06:43;;;;;;;10.73;8.00;;;6.10;92.60;;;;;;5096705;28;20177;-85
2023/03/19 07:09:09;;;;;;;11.83;7.50;;;6.20;92.40;;;;;;5095070;28;20190;-82
2023/03/19 07:11:36;;;;;;;12.37;8.30;;;6.40;92.20;;;;;;5095415;28;20569;-82
2023/03/19 07:14:02;;;;;;;10.97;7.47;;;6.40;92.30;;;;;;5096354;28;20222;-83
2023/03/19 07:16:28;;;;;;;11.43;7.90;;;6.60;92.00;;;;;;5095492;28;20247;-81
2023/03/19 07:18:55;;;;;;;9.17;7.33;;;6.70;91.80;;;;;;5095020;28;20255;-83
2023/03/19 07:21:21;;;;;;;8.07;7.17;;;6.80;91.70;;;;;;5095050;28;20645;-78
2023/03/19 07:23:46;;;;;;;7.23;6.30;;;6.80;91.80;;;;;;5094388;28;20265;-78
2023/03/19 07:26:12;;;;;;;10.23;7.90;;;6.90;91.60;;;;;;5094547;28;20169;-79
2023/03/19 07:28:38;;;;;;;11.60;7.63;;;7.10;91.80;;;;;;5094381;28;20233;-79
2023/03/19 07:31:04;;;;;;;8.23;7.33;;;7.20;91.30;;;;;;5094630;28;20624;-78
2023/03/19 07:33:30;;;;;;;9.70;6.80;;;7.40;91.20;;;;;;5094182;28;20212;-79
2023/03/19 07:35:56;;;;;;;9.40;7.07;;;7.40;91.10;;;;;;5094531;28;20177;-77
2023/03/19 07:38:23;;;;;;;8.07;7.20;;;7.50;90.90;;;;;;5094329;28;20533;-76
2023/03/19 07:40:50;;;;;;;11.27;7.77;;;7.70;90.90;;;;;;5094308;28;20172;-77
2023/03/19 07:43:16;;;;;;;9.43;7.00;;;7.80;90.80;;;;;;5094198;28;20173;-77
2023/03/19 07:45:41;;;;;;;8.47;7.40;;;7.90;91.10;;;;;;5094163;28;20235;-77
2023/03/19 07:48:07;;;;;;;8.80;7.33;;;8.10;90.50;;;;;;5093296;28;20179;-78
2023/03/19 07:50:33;;;;;;;7.73;6.93;;;8.10;90.50;;;;;;5094189;28;20166;-77
2023/03/19 07:52:59;;;;;;;8.77;7.23;;;8.20;90.40;;;;;;5094135;28;20219;-75
2023/03/19 07:55:25;;;;;;;11.27;8.47;;;8.30;90.30;;;;;;5094320;28;20511;-79
2023/03/19 07:57:51;;;;;;;12.23;7.20;;;8.40;90.20;;;;;;5078201;28;20185;-79
2023/03/19 08:00:17;;;;;;;8.93;7.30;;;8.40;90.10;;;;;;5102887;28;20173;-78
2023/03/19 08:02:43;;;;;;;8.87;7.47;;;8.50;90.10;;;;;;5094871;28;20182;-78
2023/03/19 08:05:09;;;;;;;10.57;8.97;;;8.60;90.10;;;;;;5094214;28;20543;-78
2023/03/19 08:07:35;;;;;;;14.03;8.30;;;8.70;89.80;;;;;;5093635;28;20174;-78
2023/03/19 08:10:03;;;;;;;9.27;7.83;;;8.80;89.70;;;;;;5094203;28;20176;-78
2023/03/19 08:12:28;;;;;;;9.90;7.90;;;9.00;89.60;;;;;;5093372;28;20170;-78
2023/03/19 08:14:54;;;;;;;11.53;8.33;;;9.10;88.90;;;;;;5073891;28;20526;-75
2023/03/19 08:17:20;;;;;;;11.53;8.10;;;9.20;88.90;;;;;;5093660;28;20171;-77
2023/03/19 08:19:46;;;;;;;11.97;8.70;;;9.30;89.50;;;;;;5093442;28;20652;-77
2023/03/19 08:22:12;;;;;;;11.03;8.37;;;9.30;89.10;;;;;;5093195;28;20178;-75
2023/03/19 08:24:38;;;;;;;11.40;8.47;;;9.40;89.20;;;;;;5093096;28;20691;-78
2023/03/19 08:27:04;;;;;;;15.40;10.90;;;9.50;88.90;;;;;;5093379;28;20169;-76
2023/03/19 08:29:29;;;;;;;13.07;9.50;;;9.50;88.60;;;;;;5074810;28;20179;-77
2023/03/19 08:31:57;;;;;;;15.10;8.97;;;9.60;87.70;;;;;;5093482;28;20220;-76
2023/03/19 08:34:23;;;;;;;10.53;8.27;;;9.80;87.60;;;;;;5097126;28;20217;-77
2023/03/19 08:36:49;;;;;;;11.93;8.73;;;9.80;87.00;;;;;;5108497;28;20205;-77
2023/03/19 08:39:15;;;;;;;11.53;8.90;;;9.80;86.50;;;;;;5109526;28;20172;-78
2023/03/19 08:41:41;;;;;;;13.97;10.13;;;9.90;86.60;;;;;;5097654;28;20179;-80
2023/03/19 08:44:07;;;;;;;12.83;10.33;;;10.00;85.70;;;;;;5093226;28;20222;-79
2023/03/19 08:46:32;;;;;;;12.83;10.03;;;10.10;85.10;;;;;;5093467;28;20200;-77
2023/03/19 08:48:59;;;;;;;10.53;8.87;;;10.20;84.70;;;;;;5093156;28;20670;-78
2023/03/19 08:51:27;;;;;;;9.87;8.50;;;10.20;85.10;;;;;;5092831;28;20172;-75
2023/03/19 08:53:53;;;;;;;11.00;9.07;;;10.20;85.20;;;;;;5092778;28;20240;-75
2023/03/19 08:56:19;;;;;;;15.23;11.63;;;10.40;85.20;;;;;;5093239;28;20180;-75
2023/03/19 08:58:45;;;;;;;12.80;10.47;;;10.40;85.30;;;;;;5093702;28;20256;-77
2023/03/19 09:01:13;;;;;;;14.77;10.13;;;10.50;85.90;;;;;;5093456;28;20198;-79
2023/03/19 09:03:40;;;;;;;13.43;9.77;;;10.50;86.00;;;;;;5075344;28;20384;-77
2023/03/19 09:06:08;;;;;;;12.13;9.53;;;10.60;88.50;;;;;;5074501;28;20180;-77
2023/03/19 09:08:36;;;;;;;11.50;8.93;;;10.60;87.20;;;;;;5092590;28;20239;-79
2023/03/19 09:11:03;;;;;;;12.73;10.07;;;10.70;86.50;;;;;;5074924;28;20523;-77
2023/03/19 09:13:29;;;;;;;13.07;10.00;;;10.80;86.30;;;;;;5092947;28;20230;-75
2023/03/19 09:15:55;;;;;;;14.77;10.37;;;10.90;86.10;;;;;;5093170;28;20177;-79
2023/03/19 09:18:24;;;;;;;14.53;9.90;;;11.00;86.10;;;;;;5092929;28;20172;-77
2023/03/19 09:20:50;;;;;;;11.63;9.30;;;11.10;85.50;;;;;;5092878;28;20226;-74
2023/03/19 09:23:17;;;;;;;12.93;9.67;;;11.20;85.30;;;;;;5074625;28;20177;-73
2023/03/19 09:25:42;;;;;;;14.07;9.60;;;11.40;83.90;;;;;;5092639;28;20185;-79
2023/03/19 09:28:09;;;;;;;11.67;8.37;;;11.40;84.30;;;;;;5074915;28;20180;-79
2023/03/19 09:30:34;;;;;;;13.30;9.00;;;11.40;84.50;;;;;;5074689;28;20178;-83
2023/03/19 09:33:00;;;;;;;13.00;8.77;;;11.40;84.20;;;;;;5092901;28;20224;-83
2023/03/19 09:35:30;;;;;;;12.67;8.80;;;11.40;84.70;;;;;;5092583;28;20582;-82
2023/03/19 09:37:56;;;;;;;15.30;8.70;;;11.40;83.80;;;;;;5092160;28;20177;-78
2023/03/19 09:40:27;;;;;;;10.57;8.37;;;11.40;83.50;;;;;;5092808;28;20726;-81
2023/03/19 09:43:01;;;;;;;10.10;8.10;;;11.50;83.70;;;;;;5093631;28;20603;-77
2023/03/19 09:45:28;;;;;;;12.80;9.30;;;11.70;82.90;;;;;;5093324;28;20217;-82
2023/03/19 09:48:05;;;;;;;13.90;8.27;;;11.80;82.20;;;;;;5093040;28;20499;-84
2023/03/19 09:50:33;;;;;;;12.10;9.13;;;11.80;82.70;;;;;;5094363;28;20169;-80
2023/03/19 09:53:17;;;;;;;10.63;8.23;;;11.80;82.40;;;;;;5098996;28;20237;-84
2023/03/19 09:55:51;;;;;;;11.57;8.20;;;11.90;82.40;;;;;;5093784;28;20633;-84
2023/03/19 09:58:26;;;;;;;11.03;8.27;;;12.20;82.30;;;;;;5093181;28;20174;-75
2023/03/19 10:00:54;;;;;;;11.37;8.53;;;12.30;81.90;;;;;;5094815;28;20161;-81
2023/03/19 10:03:29;;;;;;;9.27;8.10;;;12.50;82.40;;;;;;5094793;28;20166;-76
2023/03/19 10:06:05;;;;;;;10.60;8.80;;;12.70;81.80;;;;;;5105565;28;20166;-75
2023/03/19 10:08:43;;;;;;;13.13;8.40;;;12.90;81.70;;;;;;5096459;28;20595;-77
2023/03/19 10:11:49;;;;;;;11.47;8.67;;;13.20;80.80;;;;;;5094920;28;20253;-75
2023/03/19 10:14:26;;;;;;;11.50;9.03;;;13.30;80.20;;;;;;4990666;28;20279;-76
2023/03/19 10:16:55;;;;;;;10.53;8.33;;;13.40;79.60;;;;;;4997416;28;20364;-78
2023/03/19 10:19:28;;;;;;;12.80;8.93;;;13.40;80.20;;;;;;4996291;28;21079;-75
2023/03/19 10:21:59;;;;;;;12.67;8.30;;;13.60;80.70;;;;;;5011740;28;20162;-83
2023/03/19 10:24:32;;;;;;;12.13;8.53;;;13.60;78.80;;;;;;4998896;28;20185;-82
2023/03/19 10:27:08;;;;;;;9.47;8.30;;;13.70;77.60;;;;;;5013843;28;20208;-84
2023/03/19 10:29:34;;;;;;;12.60;8.77;;;13.60;77.80;;;;;;5016232;28;20212;-83
2023/03/19 10:32:18;;;;;;;11.43;8.77;;;13.70;77.80;;;;;;5025453;28;20183;-82
2023/03/19 10:34:47;;;;;;;12.33;8.30;;;13.80;77.90;;;;;;4999273;28;20244;-83
2023/03/19 10:37:19;;;;;;;11.53;8.97;;;13.70;77.00;;;;;;5013436;28;20194;-85
2023/03/19 10:39:47;;;;;;;10.17;7.70;;;13.60;77.90;;;;;;5013427;28;20188;-80
2023/03/19 10:42:28;;;;;;;10.43;7.90;;;13.90;78.20;;;;;;5013194;28;20247;-79
2023/03/19 10:45:08;;;;;;;10.47;7.97;;;14.00;78.30;;;;;;5032075;28;20232;-80
2023/03/19 10:47:40;;;;;;;9.67;7.80;;;14.30;78.10;;;;;;5052460;28;20201;-78
2023/03/19 10:50:10;;;;;;;9.37;8.20;;;14.50;76.90;;;;;;5107791;27;20186;-81
2023/03/19 10:52:37;;;;;;;13.27;8.90;;;14.70;75.80;;;;;;5139055;27;20272;-80
2023/03/19 10:55:13;;;;;;;12.73;8.23;;;14.80;76.10;;;;;;5137000;27;20189;-76
2023/03/19 10:57:42;;;;;;;10.73;7.63;;;14.70;76.50;;;;;;5135872;27;20157;-85
2023/03/19 11:00:30;;;;;;;10.00;8.20;;;14.70;76.90;;;;;;5135895;27;20178;-78
2023/03/19 11:02:58;;;;;;;11.90;8.40;;;14.70;77.00;;;;;;5137823;27;20230;-78
2023/03/19 11:05:28;;;;;;;12.40;8.10;;;14.80;76.40;;;;;;5137041;27;20689;-79
2023/03/19 11:08:06;;;;;;;9.93;7.83;;;14.80;76.10;;;;;;5135517;27;20222;-79
2023/03/19 11:10:35;;;;;;;11.63;8.10;;;14.90;76.70;;;;;;5136154;27;20593;-81
2023/03/19 11:13:14;;;;;;;14.07;8.70;;;15.00;75.40;;;;;;5135597;27;20300;-74
2023/03/19 11:15:41;;;;;;;11.03;8.53;;;14.90;75.60;;;;;;5136039;27;20237;-83
2023/03/19 11:18:20;;;;;;;13.53;8.23;;;15.00;76.50;;;;;;5135601;27;20169;-77
2023/03/19 11:21:03;;;;;;;14.80;8.73;;;14.90;76.30;;;;;;5136167;27;20674;-79
2023/03/19 11:23:30;;;;;;;10.43;8.37;;;14.90;76.20;;;;;;5135555;27;20162;-81
2023/03/19 11:26:02;;;;;;;11.17;8.43;;;14.80;76.50;;;;;;5136348;27;20203;-82
2023/03/19 11:28:32;;;;;;;11.27;8.57;;;14.80;77.10;;;;;;5136159;27;20575;-80
2023/03/19 11:31:14;;;;;;;11.33;8.40;;;14.80;77.10;;;;;;5137911;27;20195;-82
2023/03/19 11:33:40;;;;;;;10.63;7.83;;;14.90;76.80;;;;;;5146532;27;20202;-76
2023/03/19 11:36:27;;;;;;;13.30;8.40;;;14.90;77.40;;;;;;5149164;27;20161;-80
2023/03/19 11:39:18;;;;;;;11.47;7.93;;;15.10;76.60;;;;;;5136610;27;20617;-84
2023/03/19 11:42:04;;;;;;;13.53;9.43;;;15.20;75.80;;;;;;5136008;27;20173;-76
2023/03/19 11:44:48;;;;;;;11.53;8.67;;;15.10;76.60;;;;;;5114073;27;20275;-79
2023/03/19 11:47:35;;;;;;;10.70;8.20;;;15.10;75.80;;;;;;5115036;28;20162;-75
2023/03/19 11:50:19;;;;;;;11.20;8.23;;;15.10;75.10;;;;;;5118427;28;20167;-76
2023/03/19 11:53:03;;;;;;;10.03;7.67;;;15.00;75.60;;;;;;5130169;28;20195;-73
2023/03/19 11:55:46;;;;;;;11.37;8.33;;;14.80;76.40;;;;;;5126726;28;20175;-84
2023/03/19 11:58:30;;;;;;;16.70;9.03;;;14.70;76.10;;;;;;5125536;28;20164;-84
2023/03/19 12:01:00;;;;;;;10.67;8.27;;;14.80;76.70;;;;;;5115887;28;20172;-80
2023/03/19 12:04:00;;;;;;;12.50;8.50;;;14.80;75.70;;;;;;5122244;28;20310;-78
2023/03/19 12:06:44;;;;;;;9.97;7.63;;;14.80;75.40;;;;;;5086112;28;20262;-86
2023/03/19 12:09:28;;;;;;;10.70;8.30;;;14.70;76.10;;;;;;5118024;28;20179;-84
2023/03/19 12:12:03;;;;;;;13.70;9.47;;;14.50;76.50;;;;;;5118352;28;20687;-79
2023/03/19 12:15:03;;;;;;;10.70;8.67;;;14.50;77.00;;;;;;5125929;28;20214;-81
2023/03/19 12:17:48;;;;;;;13.37;8.40;;;14.70;77.10;;;;;;5095757;28;20235;-84
2023/03/19 12:20:33;;;;;;;12.77;7.80;;;14.70;77.80;;;;;;5094830;28;20250;-78
2023/03/19 12:23:21;;;;;;;11.87;8.40;;;14.70;77.80;;;;;;5094941;28;20178;-86
2023/03/19 12:26:06;;;;;;;12.57;8.30;;;14.70;78.00;;;;;;5095166;28;20190;-85
2023/03/19 12:28:45;;;;;;;9.30;8.03;;;14.80;78.90;;;;;;5094760;28;20217;-87
2023/03/19 12:31:30;;;;;;;10.87;8.70;;;14.90;79.90;;;;;;5095798;28;20159;-87
2023/03/19 12:34:05;;;;;;;12.17;8.93;;;15.00;79.10;;;;;;5093424;28;20674;-87
2023/03/19 12:36:37;;;;;;;10.53;8.33;;;15.00;78.40;;;;;;5094254;28;20187;-84
2023/03/19 12:39:12;;;;;;;12.53;8.37;;;15.20;78.10;;;;;;5093691;28;20220;-78
2023/03/19 12:41:42;;;;;;;9.33;8.10;;;15.20;78.10;;;;;;5094588;28;20275;-88
2023/03/19 12:44:11;;;;;;;10.70;8.37;;;15.20;78.90;;;;;;5095520;28;20240;-81
2023/03/19 12:46:54;;;;;;;9.63;7.93;;;15.10;79.70;;;;;;5099796;28;20222;-75
2023/03/19 12:49:35;;;;;;;11.33;8.53;;;15.10;79.00;;;;;;5099922;28;20243;-80
2023/03/19 12:52:34;;;;;;;11.43;8.70;;;15.10;79.00;;;;;;5098587;28;20163;-89
2023/03/19 12:55:18;;;;;;;10.33;8.03;;;15.10;78.70;;;;;;5106043;28;20161;-79